RELEVES METEO HORAIRES POUR LE LUNDI 06 MARS 2017  
       
   
  Température Humidité  Radiation Pression  Vent  Vent  Vent maxi  Pluvio  Intensités maxi Temps observé  Temps observé à Trappes Nébulosité à la    
Heure (en °C) (en %) Solaire Moyenne (en hPa) dominant dominant (en Km/h) (en mm) des Précipitations à Toussus le Noble (à 9km au NO de la station) station de Heure  
      (en W/m2)     (en degrés)     (en mm/h) (à 4km au Nord de la station)   Trappes (en octas)    
1:00 4,9 93 0 1014,8 O 270 23 0 0   Temps passé : averses   1:00  
2:00 5,1 93 0 1015,5 O 270 27 0,2 0,2   Pluie faible continue   2:00  
3:00 5,2 93 0 1015,8 O 270 27 0,6 4,8   Temps passé : averses   3:00  
4:00 5 93 0 1016 O 270 27 0,2 0,2   Bruine modérée intermittente   4:00  
5:00 4,8 92 0 1016,2 O 270 23 0 0   Temps passé : averses   5:00  
6:00 4,9 92 0 1017,1 O 270 24 0 0       6:00  
7:00 4,8 92 0 1017,4 O 270 18 0 0   Temps passé : averses 8 7:00  
8:00 4,7 91 4 1018,2 O 270 16 0 0     8 8:00  
9:00 5,1 90 57 1018,8 O 270 18 0 0     8 9:00  
10:00 6,5 86 174 1019,3 O 270 16 0 0     7 10:00  
11:00 7,5 80 204 1019,3 O 270 19 0 0     8 11:00  
12:00 8,1 72 285 1019,4 O 270 26 0 0     7 12:00  
13:00 8,9 68 342 1020,2 O 270 21 0 0     7 13:00  
14:00 9,6 63 428 1019,4 O 270 23 0 0     7 14:00  
15:00 10,3 59 437 1019,7 O 270 21 0 0     7 15:00  
16:00 9,9 56 304 1020,4 O 270 23 0 0     7 16:00  
17:00 9,6 59 168 1020 O 270 18 0 0     7 17:00  
18:00 8,5 62 78 1020,4 SO 270 18 0 0     7 18:00  
19:00 7,2 67 13 1021,2 O 270 8 0 0     7 19:00  
20:00 5,8 73 0 1021,21 NUL   0 0 0       20:00  
21:00 4,7 79 0 1021,3 O 270 5 0 0       21:00  
22:00 5,4 81 0 1021,3 O 270 8 0 0       22:00  
23:00 5,1 84 0 1021,1 SO 225 5 0 0       23:00  
0:00 5,2 88 0 1021,7 SO 225 6 0 0       0:00